AFR607 TFFF-TFFR
Flight info
| Callsign | AFR607 |
|---|---|
| Flight time | 0h 33m |
| Altitude | 14000 |
| Route | LIDOS2R LIDOS DCT GONES DCT PPR |
| Aircraft | A320/M-SDE3FGHIRWY/LB1 |
Departure
| Time | 2026-05-08 01:00 |
|---|---|
| Airport | Martinique Aimé Césaire International Airport (TFFF) |
Arrival
| Time | 2026-05-08 01:34 |
|---|---|
| Airport | Maryse Condé International Airport (TFFR) |
| Time | Latitude | Longitude | Altitude | Speed | Heading |
|---|---|---|---|---|---|
| 2026-05-08 00:31 | 14.59467 | -60.99968 | 21 ft | 0 kts | 8° |
| 2026-05-08 00:53 | 14.59445 | -60.99971 | 22 ft | 4 kts | 8° |
| 2026-05-08 00:53 | 14.59423 | -60.99973 | 21 ft | 4 kts | 355° |
| 2026-05-08 00:54 | 14.59398 | -60.99966 | 20 ft | 4 kts | 322° |
| 2026-05-08 00:54 | 14.59389 | -60.99958 | 20 ft | 0 kts | 309° |
| 2026-05-08 00:55 | 14.59388 | -60.99968 | 20 ft | 4 kts | 261° |
| 2026-05-08 00:56 | 14.59365 | -61.00002 | 21 ft | 12 kts | 232° |
| 2026-05-08 00:56 | 14.59309 | -61.00119 | 20 ft | 23 kts | 257° |
| 2026-05-08 00:56 | 14.59280 | -61.00283 | 20 ft | 24 kts | 261° |
| 2026-05-08 00:56 | 14.59253 | -61.00461 | 20 ft | 26 kts | 263° |
| 2026-05-08 00:57 | 14.59217 | -61.00648 | 20 ft | 27 kts | 259° |
| 2026-05-08 00:57 | 14.59184 | -61.00837 | 20 ft | 27 kts | 261° |
| 2026-05-08 00:57 | 14.59153 | -61.01027 | 20 ft | 27 kts | 261° |
| 2026-05-08 00:57 | 14.59119 | -61.01216 | 20 ft | 25 kts | 260° |
| 2026-05-08 00:58 | 14.59076 | -61.01348 | 20 ft | 17 kts | 209° |
| 2026-05-08 00:58 | 14.58970 | -61.01360 | 23 ft | 14 kts | 197° |
| 2026-05-08 00:58 | 14.58919 | -61.01439 | 21 ft | 16 kts | 253° |
| 2026-05-08 00:58 | 14.58891 | -61.01579 | 20 ft | 24 kts | 259° |
| 2026-05-08 00:59 | 14.58886 | -61.01755 | 19 ft | 23 kts | 302° |
| 2026-05-08 00:59 | 14.58862 | -61.01803 | 18 ft | 9 kts | 137° |
| 2026-05-08 00:59 | 14.58864 | -61.01737 | 18 ft | 14 kts | 79° |
| 2026-05-08 00:59 | 14.58922 | -61.01388 | 22 ft | 86 kts | 80° |
| 2026-05-08 01:00 | 14.59065 | -61.00566 | 18 ft | 144 kts | 79° |
| 2026-05-08 01:00 | 14.59265 | -60.99425 | 269 ft | 173 kts | 79° |
| 2026-05-08 01:00 | 14.59474 | -60.98137 | 851 ft | 184 kts | 79° |
| 2026-05-08 01:00 | 14.59702 | -60.96859 | 1726 ft | 179 kts | 77° |
| 2026-05-08 01:01 | 14.59930 | -60.95568 | 2245 ft | 193 kts | 79° |
| 2026-05-08 01:01 | 14.60179 | -60.94116 | 2666 ft | 217 kts | 79° |
| 2026-05-08 01:01 | 14.60453 | -60.92497 | 3143 ft | 241 kts | 78° |
| 2026-05-08 01:01 | 14.60749 | -60.90738 | 3860 ft | 253 kts | 78° |
| 2026-05-08 01:02 | 14.61332 | -60.89053 | 4736 ft | 257 kts | 52° |
| 2026-05-08 01:02 | 14.62754 | -60.87957 | 5563 ft | 262 kts | 18° |
| 2026-05-08 01:02 | 14.64584 | -60.87872 | 6421 ft | 268 kts | 349° |
| 2026-05-08 01:02 | 14.66387 | -60.88417 | 7264 ft | 272 kts | 341° |
| 2026-05-08 01:03 | 14.68172 | -60.89118 | 8119 ft | 276 kts | 340° |
| 2026-05-08 01:03 | 14.69989 | -60.89799 | 8955 ft | 280 kts | 342° |
| 2026-05-08 01:03 | 14.71859 | -60.90407 | 9796 ft | 283 kts | 345° |
| 2026-05-08 01:03 | 14.73791 | -60.90948 | 10337 ft | 297 kts | 347° |
| 2026-05-08 01:04 | 14.75880 | -60.91462 | 10597 ft | 320 kts | 348° |
| 2026-05-08 01:04 | 14.78111 | -60.91962 | 11048 ft | 333 kts | 348° |
| 2026-05-08 01:04 | 14.80403 | -60.92449 | 11723 ft | 339 kts | 349° |
| 2026-05-08 01:04 | 14.82726 | -60.92936 | 12445 ft | 342 kts | 349° |
| 2026-05-08 01:05 | 14.85074 | -60.93427 | 13158 ft | 346 kts | 349° |
| 2026-05-08 01:05 | 14.87448 | -60.93927 | 13790 ft | 351 kts | 349° |
| 2026-05-08 01:05 | 14.89846 | -60.94435 | 13990 ft | 352 kts | 349° |
| 2026-05-08 01:05 | 14.92256 | -60.94948 | 14051 ft | 357 kts | 348° |
| 2026-05-08 01:06 | 14.94704 | -60.95472 | 14059 ft | 360 kts | 348° |
| 2026-05-08 01:06 | 14.97142 | -60.95988 | 14059 ft | 355 kts | 348° |
| 2026-05-08 01:06 | 14.99548 | -60.96505 | 14062 ft | 352 kts | 348° |
| 2026-05-08 01:06 | 15.01945 | -60.97019 | 14057 ft | 351 kts | 348° |
| 2026-05-08 01:07 | 15.04285 | -60.97818 | 14067 ft | 359 kts | 333° |
| 2026-05-08 01:07 | 15.06459 | -60.99118 | 14059 ft | 361 kts | 330° |
| 2026-05-08 01:07 | 15.08617 | -61.00451 | 14067 ft | 362 kts | 330° |
| 2026-05-08 01:07 | 15.10768 | -61.01796 | 14058 ft | 362 kts | 329° |
| 2026-05-08 01:08 | 15.12919 | -61.03149 | 14065 ft | 362 kts | 329° |
| 2026-05-08 01:08 | 15.15070 | -61.04505 | 14071 ft | 362 kts | 329° |
| 2026-05-08 01:08 | 15.17222 | -61.05858 | 14071 ft | 362 kts | 329° |
| 2026-05-08 01:08 | 15.19377 | -61.07207 | 14065 ft | 362 kts | 329° |
| 2026-05-08 01:09 | 15.21527 | -61.08549 | 14069 ft | 361 kts | 329° |
| 2026-05-08 01:09 | 15.23682 | -61.09893 | 14061 ft | 361 kts | 329° |
| 2026-05-08 01:09 | 15.25832 | -61.11234 | 14066 ft | 361 kts | 330° |
| 2026-05-08 01:09 | 15.27979 | -61.12572 | 14066 ft | 361 kts | 329° |
| 2026-05-08 01:10 | 15.30103 | -61.13899 | 14067 ft | 361 kts | 329° |
| 2026-05-08 01:10 | 15.32252 | -61.15245 | 14072 ft | 361 kts | 329° |
| 2026-05-08 01:10 | 15.34400 | -61.16591 | 14077 ft | 361 kts | 329° |
| 2026-05-08 01:10 | 15.36551 | -61.17937 | 14077 ft | 361 kts | 329° |
| 2026-05-08 01:11 | 15.38701 | -61.19281 | 14081 ft | 361 kts | 329° |
| 2026-05-08 01:11 | 15.40852 | -61.20626 | 14081 ft | 361 kts | 329° |
| 2026-05-08 01:11 | 15.43005 | -61.21975 | 14083 ft | 361 kts | 329° |
| 2026-05-08 01:11 | 15.45153 | -61.23323 | 14082 ft | 361 kts | 329° |
| 2026-05-08 01:12 | 15.47302 | -61.24671 | 14091 ft | 361 kts | 329° |
| 2026-05-08 01:12 | 15.49451 | -61.26017 | 14084 ft | 361 kts | 329° |
| 2026-05-08 01:12 | 15.51601 | -61.27364 | 14084 ft | 361 kts | 329° |
| 2026-05-08 01:12 | 15.53740 | -61.28727 | 14086 ft | 361 kts | 326° |
| 2026-05-08 01:13 | 15.55659 | -61.30400 | 14082 ft | 362 kts | 314° |
| 2026-05-08 01:13 | 15.57259 | -61.32406 | 14081 ft | 362 kts | 309° |
| 2026-05-08 01:13 | 15.58797 | -61.34445 | 14080 ft | 363 kts | 309° |
| 2026-05-08 01:13 | 15.60379 | -61.36532 | 14080 ft | 363 kts | 309° |
| 2026-05-08 01:14 | 15.61918 | -61.38558 | 14080 ft | 363 kts | 309° |
| 2026-05-08 01:14 | 15.63482 | -61.40615 | 14078 ft | 363 kts | 309° |
| 2026-05-08 01:14 | 15.65042 | -61.42672 | 14076 ft | 363 kts | 309° |
| 2026-05-08 01:14 | 15.66602 | -61.44730 | 14079 ft | 363 kts | 309° |
| 2026-05-08 01:15 | 15.68161 | -61.46787 | 14080 ft | 360 kts | 309° |
| 2026-05-08 01:15 | 15.69694 | -61.48813 | 14076 ft | 355 kts | 309° |
| 2026-05-08 01:15 | 15.71213 | -61.50822 | 14057 ft | 353 kts | 309° |
| 2026-05-08 01:15 | 15.72727 | -61.52823 | 13573 ft | 350 kts | 309° |
| 2026-05-08 01:16 | 15.74191 | -61.54759 | 13138 ft | 332 kts | 309° |
| 2026-05-08 01:16 | 15.75585 | -61.56599 | 12712 ft | 318 kts | 310° |
| 2026-05-08 01:16 | 15.76923 | -61.58365 | 12292 ft | 305 kts | 310° |
| 2026-05-08 01:16 | 15.78219 | -61.60075 | 11881 ft | 299 kts | 310° |
| 2026-05-08 01:17 | 15.79499 | -61.61766 | 11472 ft | 296 kts | 310° |
| 2026-05-08 01:17 | 15.80765 | -61.63439 | 11074 ft | 293 kts | 310° |
| 2026-05-08 01:17 | 15.82016 | -61.65097 | 10758 ft | 291 kts | 310° |
| 2026-05-08 01:17 | 15.83266 | -61.66748 | 10524 ft | 290 kts | 310° |
| 2026-05-08 01:18 | 15.84513 | -61.68394 | 10296 ft | 289 kts | 310° |
| 2026-05-08 01:18 | 15.85756 | -61.70037 | 10065 ft | 288 kts | 310° |
| 2026-05-08 01:18 | 15.86990 | -61.71673 | 9824 ft | 288 kts | 310° |
| 2026-05-08 01:18 | 15.88220 | -61.73307 | 9571 ft | 287 kts | 310° |
| 2026-05-08 01:19 | 15.89447 | -61.74937 | 9317 ft | 286 kts | 310° |
| 2026-05-08 01:19 | 15.90674 | -61.76563 | 9064 ft | 285 kts | 310° |
| 2026-05-08 01:19 | 15.91901 | -61.78188 | 8811 ft | 285 kts | 310° |
| 2026-05-08 01:19 | 15.93122 | -61.79806 | 8561 ft | 284 kts | 310° |
| 2026-05-08 01:20 | 15.94341 | -61.81422 | 8312 ft | 283 kts | 310° |
| 2026-05-08 01:20 | 15.95537 | -61.83009 | 8088 ft | 283 kts | 310° |
| 2026-05-08 01:20 | 15.96748 | -61.84614 | 7840 ft | 282 kts | 310° |
| 2026-05-08 01:20 | 15.97957 | -61.86217 | 7598 ft | 281 kts | 310° |
| 2026-05-08 01:21 | 15.99162 | -61.87817 | 7364 ft | 281 kts | 310° |
| 2026-05-08 01:21 | 16.00363 | -61.89411 | 7129 ft | 280 kts | 310° |
| 2026-05-08 01:21 | 16.01568 | -61.90994 | 6894 ft | 278 kts | 313° |
| 2026-05-08 01:21 | 16.03035 | -61.92260 | 6660 ft | 273 kts | 332° |
| 2026-05-08 01:22 | 16.04794 | -61.92945 | 6426 ft | 269 kts | 351° |
| 2026-05-08 01:22 | 16.06650 | -61.93055 | 6179 ft | 267 kts | 1° |
| 2026-05-08 01:22 | 16.08508 | -61.93050 | 5933 ft | 267 kts | 1° |
| 2026-05-08 01:22 | 16.10366 | -61.93049 | 5691 ft | 266 kts | 1° |
| 2026-05-08 01:23 | 16.12213 | -61.93048 | 5438 ft | 266 kts | 2° |
| 2026-05-08 01:23 | 16.14058 | -61.93050 | 5192 ft | 265 kts | 2° |
| 2026-05-08 01:23 | 16.15897 | -61.93053 | 4958 ft | 264 kts | 2° |
| 2026-05-08 01:23 | 16.17727 | -61.93054 | 4709 ft | 263 kts | 2° |
| 2026-05-08 01:24 | 16.19554 | -61.93057 | 4462 ft | 262 kts | 2° |
| 2026-05-08 01:24 | 16.21376 | -61.93058 | 4215 ft | 262 kts | 2° |
| 2026-05-08 01:24 | 16.23162 | -61.93059 | 3964 ft | 249 kts | 3° |
| 2026-05-08 01:24 | 16.24834 | -61.93062 | 3731 ft | 232 kts | 4° |
| 2026-05-08 01:25 | 16.26406 | -61.93066 | 3629 ft | 220 kts | 3° |
| 2026-05-08 01:25 | 16.27892 | -61.93065 | 3626 ft | 209 kts | 7° |
| 2026-05-08 01:25 | 16.29234 | -61.92648 | 3630 ft | 200 kts | 31° |
| 2026-05-08 01:25 | 16.30459 | -61.91959 | 3629 ft | 201 kts | 31° |
| 2026-05-08 01:26 | 16.31569 | -61.91128 | 3619 ft | 198 kts | 47° |
| 2026-05-08 01:26 | 16.32381 | -61.89981 | 3626 ft | 197 kts | 63° |
| 2026-05-08 01:26 | 16.32793 | -61.88623 | 3623 ft | 198 kts | 84° |
| 2026-05-08 01:26 | 16.32739 | -61.87185 | 3622 ft | 200 kts | 95° |
| 2026-05-08 01:27 | 16.32522 | -61.85757 | 3623 ft | 200 kts | 97° |
| 2026-05-08 01:27 | 16.32267 | -61.84326 | 3621 ft | 202 kts | 97° |
| 2026-05-08 01:27 | 16.32004 | -61.82888 | 3621 ft | 202 kts | 97° |
| 2026-05-08 01:27 | 16.31742 | -61.81462 | 3618 ft | 200 kts | 98° |
| 2026-05-08 01:28 | 16.31481 | -61.80044 | 3611 ft | 199 kts | 97° |
| 2026-05-08 01:28 | 16.31221 | -61.78624 | 3610 ft | 201 kts | 97° |
| 2026-05-08 01:28 | 16.30958 | -61.77194 | 3616 ft | 200 kts | 97° |
| 2026-05-08 01:28 | 16.30697 | -61.75777 | 3618 ft | 200 kts | 98° |
| 2026-05-08 01:29 | 16.30435 | -61.74351 | 3616 ft | 199 kts | 98° |
| 2026-05-08 01:29 | 16.30184 | -61.72992 | 3565 ft | 187 kts | 98° |
| 2026-05-08 01:29 | 16.29943 | -61.71680 | 3378 ft | 182 kts | 97° |
| 2026-05-08 01:29 | 16.29707 | -61.70398 | 3151 ft | 178 kts | 97° |
| 2026-05-08 01:30 | 16.29477 | -61.69152 | 2925 ft | 171 kts | 98° |
| 2026-05-08 01:30 | 16.29260 | -61.67974 | 2690 ft | 162 kts | 98° |
| 2026-05-08 01:30 | 16.29050 | -61.66833 | 2477 ft | 159 kts | 98° |
| 2026-05-08 01:30 | 16.28846 | -61.65726 | 2246 ft | 151 kts | 98° |
| 2026-05-08 01:31 | 16.28655 | -61.64696 | 2057 ft | 140 kts | 98° |
| 2026-05-08 01:31 | 16.28474 | -61.63712 | 1852 ft | 137 kts | 99° |
| 2026-05-08 01:31 | 16.28296 | -61.62742 | 1668 ft | 136 kts | 98° |
| 2026-05-08 01:31 | 16.28119 | -61.61783 | 1472 ft | 133 kts | 98° |
| 2026-05-08 01:32 | 16.27944 | -61.60835 | 1297 ft | 134 kts | 98° |
| 2026-05-08 01:32 | 16.27770 | -61.59891 | 1105 ft | 132 kts | 98° |
| 2026-05-08 01:32 | 16.27595 | -61.58947 | 932 ft | 134 kts | 99° |
| 2026-05-08 01:32 | 16.27418 | -61.57987 | 752 ft | 136 kts | 99° |
| 2026-05-08 01:33 | 16.27240 | -61.57022 | 579 ft | 135 kts | 100° |
| 2026-05-08 01:33 | 16.27064 | -61.56056 | 394 ft | 136 kts | 101° |
| 2026-05-08 01:33 | 16.26878 | -61.55088 | 193 ft | 137 kts | 100° |
| 2026-05-08 01:33 | 16.26713 | -61.54137 | 27 ft | 130 kts | 100° |
| 2026-05-08 01:34 | 16.26557 | -61.53318 | 29 ft | 96 kts | 102° |
| 2026-05-08 01:34 | 16.26464 | -61.52811 | 28 ft | 46 kts | 101° |
| 2026-05-08 01:34 | 16.26409 | -61.52509 | 31 ft | 39 kts | 101° |
| 2026-05-08 01:34 | 16.26368 | -61.52277 | 36 ft | 22 kts | 76° |
| 2026-05-08 01:35 | 16.26500 | -61.52216 | 36 ft | 22 kts | 9° |
| 2026-05-08 01:35 | 16.26651 | -61.52185 | 36 ft | 18 kts | 12° |
| 2026-05-08 01:35 | 16.26727 | -61.52242 | 35 ft | 12 kts | 271° |
| 2026-05-08 01:35 | 16.26738 | -61.52299 | 35 ft | 12 kts | 284° |
| 2026-05-08 01:36 | 16.26757 | -61.52383 | 34 ft | 12 kts | 282° |
| 2026-05-08 01:36 | 16.26774 | -61.52466 | 33 ft | 12 kts | 282° |
| 2026-05-08 01:36 | 16.26785 | -61.52521 | 33 ft | 0 kts | 283° |
| 2026-05-08 01:37 | 16.26786 | -61.52526 | 33 ft | 4 kts | 283° |
| 2026-05-08 01:37 | 16.26802 | -61.52591 | 32 ft | 10 kts | 302° |
| 2026-05-08 01:37 | 16.26859 | -61.52604 | 32 ft | 8 kts | 348° |
| 2026-05-08 01:37 | 16.26895 | -61.52613 | 32 ft | 0 kts | 347° |